createdAt,value
2022-11-05T00:01:35.088Z,86.08
2022-11-05T00:04:56.855Z,86.51
2022-11-05T00:08:22.719Z,85.86
2022-11-05T00:11:45.331Z,86.81
2022-11-05T00:15:10.385Z,86.59
2022-11-05T00:18:12.914Z,87.14
2022-11-05T00:21:35.215Z,86.81
2022-11-05T00:24:57.241Z,86.50
2022-11-05T00:28:03.577Z,86.25
2022-11-05T00:31:10.856Z,86.87
2022-11-05T00:34:14.433Z,86.63
2022-11-05T00:37:16.883Z,86.95
2022-11-05T00:40:19.705Z,86.96
2022-11-05T00:43:40.979Z,87.13
2022-11-05T00:46:43.473Z,87.59
2022-11-05T00:49:49.401Z,87.43
2022-11-05T00:52:57.252Z,87.78
2022-11-05T00:56:01.114Z,87.34
2022-11-05T00:59:03.675Z,87.44
2022-11-05T01:02:07.078Z,87.72
2022-11-05T01:05:10.636Z,87.27
2022-11-05T01:08:16.322Z,87.38
2022-11-05T01:11:35.364Z,87.28
2022-11-05T01:14:37.884Z,86.79
2022-11-05T01:17:40.416Z,87.64
2022-11-05T01:20:43.683Z,87.82
2022-11-05T01:23:46.945Z,87.27
2022-11-05T01:26:49.711Z,88.19
2022-11-05T01:29:52.237Z,88.52
2022-11-05T01:32:55.560Z,89.05
2022-11-05T01:35:59.118Z,88.67
2022-11-05T01:39:02.061Z,88.40
2022-11-05T01:42:13.841Z,89.15
2022-11-05T01:45:27.858Z,88.73
2022-11-05T01:48:35.471Z,88.54
2022-11-05T01:51:39.144Z,89.28
2022-11-05T01:54:41.868Z,88.61
2022-11-05T01:57:45.186Z,88.66
2022-11-05T02:00:48.744Z,89.42
2022-11-05T02:03:55.550Z,89.00
2022-11-05T02:06:59.407Z,88.86
2022-11-05T02:10:14.445Z,88.31
2022-11-05T02:13:17.536Z,88.34
2022-11-05T02:16:38.911Z,88.59
2022-11-05T02:20:16.502Z,88.25
2022-11-05T02:23:37.298Z,89.43
2022-11-05T02:26:58.495Z,89.64
2022-11-05T02:30:24.294Z,89.64
2022-11-05T02:33:56.628Z,89.21
2022-11-05T02:37:29.000Z,89.36
2022-11-05T02:40:53.981Z,89.21
2022-11-05T02:44:05.399Z,89.73
2022-11-05T02:47:21.489Z,89.42
2022-11-05T02:50:32.798Z,89.34
2022-11-05T02:53:43.014Z,89.49
2022-11-05T02:56:49.511Z,89.79
2022-11-05T03:00:02.035Z,89.27
2022-11-05T03:03:08.620Z,89.11
2022-11-05T03:06:46.520Z,89.46
2022-11-05T03:10:20.059Z,89.38
2022-11-05T03:13:33.424Z,89.72
2022-11-05T03:16:42.235Z,89.64
2022-11-05T03:20:12.814Z,89.71
2022-11-05T03:23:19.195Z,89.68
2022-11-05T03:26:43.426Z,89.45
2022-11-05T03:29:59.298Z,89.45
2022-11-05T03:33:07.141Z,89.34
2022-11-05T03:36:17.896Z,89.60
2022-11-05T03:39:31.351Z,89.45
2022-11-05T03:42:38.839Z,88.80
2022-11-05T03:45:47.560Z,88.14
2022-11-05T03:48:55.439Z,88.46
2022-11-05T03:52:24.350Z,88.33
2022-11-05T03:55:34.667Z,88.29
2022-11-05T03:58:43.654Z,87.78
2022-11-05T04:01:48.093Z,87.97
2022-11-05T04:04:52.138Z,88.26
2022-11-05T04:08:14.593Z,87.22
2022-11-05T04:11:36.530Z,87.68
2022-11-05T04:14:39.729Z,86.98
2022-11-05T04:17:42.132Z,87.11
2022-11-05T04:21:03.903Z,88.00
2022-11-05T04:24:09.722Z,87.31
2022-11-05T04:27:13.239Z,88.20
2022-11-05T04:30:20.837Z,88.00
2022-11-05T04:33:24.217Z,87.26
2022-11-05T04:36:27.243Z,87.63
2022-11-05T04:39:29.736Z,87.64
2022-11-05T04:42:32.232Z,87.53
2022-11-05T04:45:36.247Z,87.15
2022-11-05T04:48:39.745Z,87.61
2022-11-05T04:51:42.412Z,87.48
2022-11-05T04:54:44.900Z,87.80
2022-11-05T04:57:52.891Z,87.11
2022-11-05T05:00:56.297Z,86.94
2022-11-05T05:03:58.794Z,87.16
2022-11-05T05:07:01.302Z,86.90
2022-11-05T05:10:06.630Z,87.13
2022-11-05T05:13:11.885Z,86.92
2022-11-05T05:16:21.601Z,86.70
2022-11-05T05:19:25.604Z,86.58
2022-11-05T05:22:29.321Z,87.04
2022-11-05T05:25:31.781Z,87.19
2022-11-05T05:28:34.360Z,86.68
2022-11-05T05:31:38.577Z,86.46
2022-11-05T05:34:41.087Z,86.87
2022-11-05T05:37:44.427Z,86.59
2022-11-05T05:40:49.910Z,86.92
2022-11-05T05:43:52.526Z,86.97
2022-11-05T05:46:55.836Z,86.16
2022-11-05T05:49:58.531Z,85.97
2022-11-05T05:53:01.059Z,85.98
2022-11-05T05:56:05.583Z,85.96
2022-11-05T05:59:08.289Z,85.59
2022-11-05T06:02:12.711Z,85.73
2022-11-05T06:05:15.549Z,85.79
2022-11-05T06:08:18.801Z,85.35
2022-11-05T06:11:23.582Z,84.76
2022-11-05T06:14:26.029Z,85.01
2022-11-05T06:17:29.307Z,84.97
2022-11-05T06:20:31.760Z,84.80
2022-11-05T06:23:37.212Z,84.73
2022-11-05T06:26:42.910Z,84.60
2022-11-05T06:29:46.722Z,84.60
2022-11-05T06:32:49.636Z,84.73
2022-11-05T06:35:52.794Z,84.82
2022-11-05T06:38:55.288Z,84.97
2022-11-05T06:45:22.038Z,86.24
2022-11-05T06:48:25.474Z,86.20
2022-11-05T06:51:27.986Z,85.86
2022-11-05T06:54:30.476Z,85.68
2022-11-05T06:57:32.913Z,86.08
2022-11-05T07:00:35.940Z,86.20
2022-11-05T07:03:39.559Z,84.91
2022-11-05T07:06:42.892Z,85.40
2022-11-05T07:09:46.202Z,85.44
2022-11-05T07:12:51.919Z,85.28
2022-11-05T07:15:55.975Z,84.97
2022-11-05T07:18:58.411Z,84.90
2022-11-05T07:22:00.849Z,84.23
2022-11-05T07:25:05.904Z,84.08
2022-11-05T07:28:09.674Z,83.99
2022-11-05T07:31:12.914Z,84.22
2022-11-05T07:34:15.906Z,83.99
2022-11-05T07:37:18.967Z,83.58
2022-11-05T07:40:25.065Z,82.51
2022-11-05T07:43:28.429Z,82.92
2022-11-05T07:46:31.765Z,82.52
2022-11-05T07:49:34.953Z,82.53
2022-11-05T07:52:37.393Z,82.58
2022-11-05T07:55:41.938Z,82.63
2022-11-05T07:58:45.460Z,82.15
2022-11-05T08:01:48.142Z,82.05
2022-11-05T08:04:51.532Z,81.61
2022-11-05T08:07:55.933Z,81.40
2022-11-05T08:11:06.841Z,81.14
2022-11-05T08:14:09.430Z,80.36
2022-11-05T08:17:15.975Z,80.74
2022-11-05T08:20:21.997Z,80.94
2022-11-05T08:23:24.434Z,80.25
2022-11-05T08:26:27.469Z,80.23
2022-11-05T08:29:31.459Z,80.17
2022-11-05T08:32:34.168Z,80.48
2022-11-05T08:35:38.765Z,79.62
2022-11-05T08:38:41.211Z,79.58
2022-11-05T08:41:45.654Z,79.36
2022-11-05T08:44:48.996Z,79.27
2022-11-05T08:47:51.429Z,79.50
2022-11-05T08:50:54.899Z,78.86
2022-11-05T08:53:57.540Z,78.30
2022-11-05T08:57:01.070Z,79.42
2022-11-05T09:00:03.925Z,78.77
2022-11-05T09:03:08.333Z,78.75
2022-11-05T09:06:11.109Z,78.52
2022-11-05T09:09:13.655Z,79.09
2022-11-05T09:12:16.311Z,78.22
2022-11-05T09:15:18.793Z,77.78
2022-11-05T09:18:22.196Z,77.38
2022-11-05T09:21:25.571Z,77.40
2022-11-05T09:24:29.019Z,77.79
2022-11-05T09:27:31.934Z,77.21
2022-11-05T09:30:34.549Z,77.24
2022-11-05T09:33:39.432Z,77.03
2022-11-05T09:36:42.652Z,76.65
2022-11-05T09:39:47.156Z,76.66
2022-11-05T09:42:54.074Z,76.62
2022-11-05T09:46:00.372Z,76.93
2022-11-05T09:49:06.951Z,76.11
2022-11-05T09:52:15.292Z,77.01
2022-11-05T09:55:29.259Z,76.32
2022-11-05T09:58:38.596Z,76.02
2022-11-05T10:01:43.336Z,76.57
2022-11-05T10:04:51.233Z,76.21
2022-11-05T10:08:00.183Z,76.50
2022-11-05T10:11:07.826Z,76.83
2022-11-05T10:15:00.008Z,76.13
2022-11-05T10:18:12.632Z,75.32
2022-11-05T10:21:27.774Z,75.02
2022-11-05T10:24:43.808Z,74.88
2022-11-05T10:27:58.134Z,75.42
2022-11-05T10:31:07.060Z,75.10
2022-11-05T10:34:13.625Z,75.08
2022-11-05T10:37:16.700Z,74.83
2022-11-05T10:40:40.258Z,75.17
2022-11-05T10:43:52.303Z,75.59
2022-11-05T10:47:25.419Z,75.11
2022-11-05T10:50:30.115Z,75.21
2022-11-05T10:53:39.170Z,75.58
2022-11-05T10:56:42.531Z,75.42
2022-11-05T10:59:45.734Z,74.84
2022-11-05T11:02:54.270Z,74.15
2022-11-05T11:06:04.379Z,74.25
2022-11-05T11:09:20.837Z,74.37
2022-11-05T11:12:38.198Z,73.02
2022-11-05T11:15:46.253Z,73.67
2022-11-05T11:18:54.777Z,73.58
2022-11-05T11:22:03.316Z,73.66
2022-11-05T11:25:25.451Z,73.95
2022-11-05T11:28:34.293Z,73.32
2022-11-05T11:31:39.523Z,72.20
2022-11-05T11:34:44.532Z,71.95
2022-11-05T11:37:51.877Z,72.47
2022-11-05T11:41:22.378Z,72.24
2022-11-05T11:44:31.069Z,72.17
2022-11-05T11:47:43.933Z,71.78
2022-11-05T11:50:48.858Z,71.84
2022-11-05T11:53:57.448Z,71.24
2022-11-05T11:57:00.791Z,70.90
2022-11-05T12:00:09.463Z,70.73
2022-11-05T12:03:35.752Z,71.17
2022-11-05T12:06:44.384Z,71.94
2022-11-05T12:10:05.628Z,71.45
2022-11-05T12:13:21.278Z,71.84
2022-11-05T12:16:53.225Z,70.42
2022-11-05T12:20:11.342Z,69.56
2022-11-05T12:23:29.147Z,70.14
2022-11-05T12:27:07.925Z,69.63
2022-11-05T12:30:17.615Z,70.08
2022-11-05T12:33:25.742Z,70.32
2022-11-05T12:36:37.124Z,69.75
2022-11-05T12:39:44.418Z,69.53
2022-11-05T12:43:11.722Z,69.80
2022-11-05T12:46:26.656Z,69.27
2022-11-05T12:49:47.547Z,69.84
2022-11-05T12:53:24.766Z,70.18
2022-11-05T12:56:33.330Z,69.96
2022-11-05T12:59:54.845Z,69.80
2022-11-05T13:03:06.058Z,69.50
2022-11-05T13:06:17.258Z,70.39
2022-11-05T13:09:33.101Z,71.00
2022-11-05T13:12:41.223Z,70.40
2022-11-05T13:15:56.728Z,70.09
2022-11-05T13:19:13.563Z,70.23
2022-11-05T13:22:16.064Z,70.60
2022-11-05T13:25:29.076Z,70.41
2022-11-05T13:28:49.190Z,69.38
2022-11-05T13:32:08.322Z,70.13
2022-11-05T13:35:25.990Z,70.02
2022-11-05T13:38:47.537Z,69.46
2022-11-05T13:42:16.082Z,70.11
2022-11-05T13:45:44.075Z,70.42
2022-11-05T13:49:18.784Z,69.69
2022-11-05T13:52:34.122Z,70.99
2022-11-05T13:56:01.620Z,70.78
2022-11-05T13:59:35.028Z,70.26
2022-11-05T14:03:01.608Z,70.89
2022-11-05T14:06:10.603Z,70.80
2022-11-05T14:09:21.004Z,71.28
2022-11-05T14:12:34.306Z,71.47
2022-11-05T14:15:37.452Z,71.35
2022-11-05T14:18:43.985Z,71.48
2022-11-05T14:21:47.871Z,71.69
2022-11-05T14:24:51.455Z,71.30
2022-11-05T14:27:58.279Z,71.16
2022-11-05T14:31:05.438Z,71.76
2022-11-05T14:34:11.293Z,71.50
2022-11-05T14:37:29.863Z,71.58
2022-11-05T14:40:38.892Z,71.75
2022-11-05T14:43:51.888Z,71.51
2022-11-05T14:46:59.740Z,71.40
2022-11-05T14:50:11.709Z,71.07
2022-11-05T14:53:35.335Z,71.80
2022-11-05T14:56:53.231Z,71.26
2022-11-05T15:00:01.092Z,71.31
2022-11-05T15:03:34.760Z,71.04
2022-11-05T15:06:39.498Z,71.82
2022-11-05T15:09:55.747Z,70.92
2022-11-05T15:13:05.312Z,72.07
2022-11-05T15:16:08.296Z,71.06
2022-11-05T15:19:21.266Z,71.63
2022-11-05T15:22:36.496Z,71.45
2022-11-05T15:26:04.294Z,71.58
2022-11-05T15:29:21.635Z,71.92
2022-11-05T15:32:26.738Z,72.20
2022-11-05T15:35:30.373Z,73.29
2022-11-05T15:38:35.026Z,72.31
2022-11-05T15:41:40.023Z,72.52
2022-11-05T15:45:00.067Z,73.28
2022-11-05T15:48:13.493Z,74.42
2022-11-05T15:51:17.759Z,74.19
2022-11-05T15:54:30.335Z,74.55
2022-11-05T15:57:37.962Z,74.64
2022-11-05T16:00:49.066Z,73.92
2022-11-05T16:03:53.232Z,74.98
2022-11-05T16:07:10.381Z,74.68
2022-11-05T16:10:23.745Z,74.04
2022-11-05T16:13:30.790Z,74.56
2022-11-05T16:16:34.346Z,74.74
2022-11-05T16:19:41.792Z,74.73
2022-11-05T16:22:50.843Z,74.36
2022-11-05T16:25:53.661Z,74.56
2022-11-05T16:28:59.312Z,75.11
2022-11-05T16:32:05.337Z,74.50
2022-11-05T16:35:21.014Z,75.24
2022-11-05T16:38:24.810Z,76.00
2022-11-05T16:41:28.365Z,76.13
2022-11-05T16:44:32.600Z,75.56
2022-11-05T16:47:36.222Z,76.62
2022-11-05T16:50:39.444Z,76.59
2022-11-05T16:53:43.358Z,78.18
2022-11-05T16:56:47.589Z,78.22
2022-11-05T16:59:50.513Z,79.08
2022-11-05T17:02:54.502Z,79.47
2022-11-05T17:05:59.216Z,80.23
2022-11-05T17:09:02.010Z,80.36
2022-11-05T17:12:05.184Z,81.29
2022-11-05T17:15:27.453Z,81.72
2022-11-05T17:18:30.782Z,82.45
2022-11-05T17:21:36.994Z,82.28
2022-11-05T17:24:39.699Z,82.71
2022-11-05T17:27:43.388Z,83.21
2022-11-05T17:30:52.982Z,83.84
2022-11-05T17:33:58.382Z,83.76
2022-11-05T17:37:01.074Z,83.32
2022-11-05T17:40:08.229Z,83.27
2022-11-05T17:43:11.434Z,83.96
2022-11-05T17:46:17.102Z,84.12
2022-11-05T17:49:19.831Z,83.98
2022-11-05T17:52:22.624Z,85.02
2022-11-05T17:55:26.347Z,84.61
2022-11-05T17:58:29.105Z,84.84
2022-11-05T18:01:34.661Z,84.94
2022-11-05T18:04:38.993Z,84.95
2022-11-05T18:07:42.146Z,85.28
2022-11-05T18:10:45.471Z,85.29
2022-11-05T18:13:51.006Z,85.31
2022-11-05T18:17:00.066Z,85.56
2022-11-05T18:20:04.830Z,85.17
2022-11-05T18:23:10.653Z,85.00
2022-11-05T18:26:16.215Z,85.17
2022-11-05T18:29:19.937Z,85.58
2022-11-05T18:32:23.218Z,85.62
2022-11-05T18:35:27.645Z,85.91
2022-11-05T18:38:30.523Z,85.79
2022-11-05T18:41:33.448Z,86.15
2022-11-05T18:44:39.657Z,86.76
2022-11-05T18:47:43.266Z,86.49
2022-11-05T18:50:46.863Z,87.01
2022-11-05T18:53:50.292Z,87.00
2022-11-05T18:56:54.162Z,87.02
2022-11-05T18:59:57.836Z,87.85
2022-11-05T19:03:01.310Z,86.85
2022-11-05T19:06:05.503Z,87.67
2022-11-05T19:09:11.979Z,87.31
2022-11-05T19:12:15.233Z,86.83
2022-11-05T19:15:19.025Z,87.20
2022-11-05T19:18:21.736Z,87.49
2022-11-05T19:21:26.348Z,87.49
2022-11-05T19:24:29.885Z,87.87
2022-11-05T19:27:36.076Z,87.59
2022-11-05T19:30:39.845Z,87.90
2022-11-05T19:33:44.417Z,88.09
2022-11-05T19:36:47.922Z,88.13
2022-11-05T19:39:51.102Z,88.19
2022-11-05T19:42:58.385Z,88.26
2022-11-05T19:46:04.540Z,88.61
2022-11-05T19:49:08.209Z,88.65
2022-11-05T19:52:12.922Z,89.06
2022-11-05T19:55:15.680Z,88.94
2022-11-05T19:58:18.515Z,88.89
2022-11-05T20:01:24.144Z,88.50
2022-11-05T20:04:29.050Z,88.65
2022-11-05T20:07:31.897Z,88.56
2022-11-05T20:10:37.605Z,89.08
2022-11-05T20:13:41.966Z,88.76
2022-11-05T20:16:46.946Z,88.65
2022-11-05T20:19:53.452Z,88.76
2022-11-05T20:22:57.744Z,88.64
2022-11-05T20:26:03.825Z,88.98
2022-11-05T20:29:12.983Z,88.97
2022-11-05T20:32:16.414Z,89.18
2022-11-05T20:35:19.938Z,89.29
2022-11-05T20:38:23.450Z,89.51
2022-11-05T20:41:27.153Z,89.42
2022-11-05T20:44:30.454Z,88.73
2022-11-05T20:47:33.302Z,88.77
2022-11-05T20:50:41.896Z,88.82
2022-11-05T20:53:46.221Z,89.38
2022-11-05T20:56:50.519Z,89.22
2022-11-05T20:59:53.342Z,89.49
2022-11-05T21:02:57.031Z,89.68
2022-11-05T21:06:04.171Z,89.10
2022-11-05T21:09:10.818Z,88.88
2022-11-05T21:12:13.706Z,88.90
2022-11-05T21:15:22.899Z,88.35
2022-11-05T21:18:29.731Z,88.45
2022-11-05T21:21:37.388Z,88.96
2022-11-05T21:24:43.393Z,88.96
2022-11-05T21:27:46.124Z,88.80
2022-11-05T21:30:49.494Z,88.43
2022-11-05T21:33:55.160Z,88.43
2022-11-05T21:36:58.902Z,89.37
2022-11-05T21:40:01.896Z,88.75
2022-11-05T21:43:06.034Z,89.20
2022-11-05T21:46:12.530Z,88.99
2022-11-05T21:49:16.109Z,89.33
2022-11-05T21:52:37.315Z,89.49
2022-11-05T21:55:59.898Z,89.78
2022-11-05T21:59:21.372Z,89.36
2022-11-05T22:02:25.255Z,89.41
2022-11-05T22:05:28.656Z,89.53
2022-11-05T22:08:32.075Z,89.48
2022-11-05T22:11:37.466Z,89.33
2022-11-05T22:14:41.206Z,89.73
2022-11-05T22:17:46.893Z,89.47
2022-11-05T22:20:49.734Z,89.66
2022-11-05T22:23:53.749Z,89.47
2022-11-05T22:26:56.224Z,89.69
2022-11-05T22:29:58.807Z,89.48
2022-11-05T22:33:02.578Z,88.55
2022-11-05T22:36:05.311Z,89.54
2022-11-05T22:39:09.682Z,89.24
2022-11-05T22:42:12.499Z,89.26
2022-11-05T22:45:16.095Z,89.45
2022-11-05T22:48:18.840Z,89.36
2022-11-05T22:51:24.971Z,88.63
2022-11-05T22:54:27.705Z,89.16
2022-11-05T22:57:30.270Z,89.28
2022-11-05T23:00:36.002Z,89.40
2022-11-05T23:03:40.362Z,88.76
2022-11-05T23:07:02.282Z,88.42
2022-11-05T23:10:23.702Z,88.83
2022-11-05T23:13:26.781Z,89.15
2022-11-05T23:16:48.388Z,88.88
2022-11-05T23:20:10.492Z,89.46
2022-11-05T23:23:32.003Z,89.19
2022-11-05T23:26:51.299Z,88.77
2022-11-05T23:29:56.508Z,89.42
2022-11-05T23:32:59.683Z,88.73
2022-11-05T23:36:20.856Z,89.71
2022-11-05T23:39:24.162Z,88.93
2022-11-05T23:42:46.909Z,88.58
2022-11-05T23:46:08.516Z,88.93
2022-11-05T23:49:12.219Z,88.96
2022-11-05T23:52:14.782Z,89.05
2022-11-05T23:55:18.284Z,88.62
2022-11-05T23:58:21.715Z,89.27
